Meteo Giornale » Osservazioni meteo Italia » Verona-Villafranca

ore: 12:50 - Osservazioni Meteo Verona-Villafranca
Lat. 45° 23' N Lon. 10° 52' E Alt. 67 metri s.l.m.

poco_nuvoloso Europe/Rome

16 °C

Poco Nuvoloso

Temp. 24 Ore

10 °C

20 °C

Est

9.3 Km/h

Dew point 3 °C

Umidità 41 %

Visibilità  10 Km

Il sole sorge alle ore 07:07

Il sole tramonta alle ore 19:07

Data e Ora Cielo e Fenomeni T °C DP °C Um. % Pres. hPa Vis. km Vento km/h
Oggi h: 12:50 poco_nuvoloso Poco Nuvoloso 16 3 41 1039 10 E 9.3
Oggi h: 12:20 nuvoloso Nuvoloso 16 3 41 1039 10 E 13
Oggi h: 11:50 nuvoloso Nuvoloso 15 3 44 1039 10 E 14.8
Oggi h: 11:20 nuvoloso Nuvoloso 15 3 44 1039 10 E 16.7
Oggi h: 10:50 molto_nuvoloso Molto Nuvoloso 15 3 44 1040 10 E/NE 13
Oggi h: 10:20 molto_nuvoloso Molto Nuvoloso 14 3 47 1039 10 E/NE 14.8
Oggi h: 09:50 molto_nuvoloso Molto Nuvoloso 14 3 47 1039 10 E/NE 14.8
Oggi h: 09:20 molto_nuvoloso Molto Nuvoloso 13 3 50 1039 10 E/NE 14.8
Oggi h: 08:50 molto_nuvoloso Molto Nuvoloso 13 3 50 1038 10 NE 11.1
Oggi h: 08:20 molto_nuvoloso Molto Nuvoloso 13 2 47 1038 10 NE 11.1
Oggi h: 07:50 molto_nuvoloso Molto Nuvoloso 13 2 47 1038 10 NE 9.3
Oggi h: 07:20 molto_nuvoloso Molto Nuvoloso 12 2 50 1038 10 NE 11.1
Oggi h: 06:20 sereno Sereno 11 2 53 1037 10 NE 9.3
Oggi h: 05:20 poco_nuvoloso Poco Nuvoloso 12 2 50 1038 10 NE 9.3
Oggi h: 02:50 sereno Sereno 14 3 47 1037 10 NE 14.8
Oggi h: 02:20 sereno Sereno 14 4 50 1037 10 NE 14.8
Oggi h: 01:50 sereno Sereno 14 5 54 1037 10 NE 13
Oggi h: 01:20 sereno Sereno 14 4 50 1036 10 NE 14.8
Oggi h: 00:50 sereno Sereno 10 4 66 1036 10 N 7.4
Oggi h: 00:20 sereno Sereno 10 4 66 1036 10 N 5.5
Ieri h: 23:50 sereno Sereno 11 4 61 1035 10 N/NO 11.1
Ieri h: 23:20 sereno Sereno 10 4 66 1035 10 N/NO 9.3
Ieri h: 22:50 sereno Sereno 11 4 61 1034 10 N/NO 11.1
Ieri h: 22:20 sereno Sereno 11 3 57 1034 10 N/NO 9.3
Ieri h: 21:50 sereno Sereno 11 3 57 1034 10 N 9.3
Ieri h: 21:20 sereno Sereno 14 3 47 1034 10 N/NE 9.3
Ieri h: 20:50 sereno Sereno 14 3 47 1033 10 NE 7.4
Ieri h: 20:20 sereno Sereno 14 3 47 1033 10 E 7.4
Ieri h: 19:50 sereno Sereno 15 2 41 1033 10 N 5.5
Ieri h: 19:20 sereno Sereno 16 2 38 1032 10 E 9.3
Ieri h: 18:50 sereno Sereno 18 1 31 1032 10 E 13
Ieri h: 18:20 sereno Sereno 19 2 32 1032 10 E 11.1
Ieri h: 17:50 sereno Sereno 19 2 32 1031 10 E 13
Ieri h: 17:20 sereno Sereno 20 2 30 1031 10 E 9.3
Ieri h: 16:50 sereno Sereno 20 2 30 1031 10 E 13
Ieri h: 16:20 sereno Sereno 20 2 30 1031 10 E/NE 11.1
Ieri h: 15:50 sereno Sereno 20 2 30 1031 10 E 9.3
Ieri h: 15:20 sereno Sereno 20 3 32 1032 10 N 9.3
Ieri h: 14:50 sereno Sereno 20 2 30 1032 10 E 7.4
Ieri h: 14:20 sereno Sereno 19 3 34 1032 10 E/NE 14.8
Ieri h: 13:50 sereno Sereno 20 3 32 1032 10 E 11.1